createdAt,value
2022-12-29T00:00:55.303Z,0.00
2022-12-29T00:01:55.460Z,0.00
2022-12-29T00:02:55.837Z,0.00
2022-12-29T00:03:56.045Z,0.00
2022-12-29T00:04:56.342Z,0.00
2022-12-29T00:05:56.604Z,0.00
2022-12-29T00:06:56.857Z,0.00
2022-12-29T00:07:57.155Z,0.00
2022-12-29T00:08:57.444Z,0.00
2022-12-29T00:09:57.760Z,0.00
2022-12-29T00:10:58.071Z,0.00
2022-12-29T00:11:58.315Z,0.00
2022-12-29T00:12:58.612Z,0.00
2022-12-29T00:13:58.925Z,0.00
2022-12-29T00:14:59.196Z,0.00
2022-12-29T00:15:59.558Z,0.00
2022-12-29T00:16:59.802Z,0.00
2022-12-29T00:18:00.045Z,0.00
2022-12-29T00:19:00.369Z,0.00
2022-12-29T00:20:00.609Z,0.00
2022-12-29T00:21:00.902Z,0.00
2022-12-29T00:22:01.245Z,0.00
2022-12-29T00:23:01.514Z,0.00
2022-12-29T00:24:01.777Z,0.00
2022-12-29T00:25:02.112Z,0.00
2022-12-29T00:26:02.396Z,0.00
2022-12-29T00:27:02.662Z,0.00
2022-12-29T00:28:07.309Z,0.00
2022-12-29T00:29:04.167Z,0.00
2022-12-29T00:30:03.481Z,0.00
2022-12-29T00:31:03.903Z,0.00
2022-12-29T00:32:04.055Z,0.00
2022-12-29T00:33:04.353Z,0.00
2022-12-29T00:34:04.614Z,0.00
2022-12-29T00:35:04.853Z,0.00
2022-12-29T00:36:05.166Z,0.00
2022-12-29T00:37:05.448Z,0.00
2022-12-29T00:38:05.701Z,0.00
2022-12-29T00:39:06.004Z,0.00
2022-12-29T00:40:06.294Z,0.00
2022-12-29T00:41:06.537Z,0.00
2022-12-29T00:42:06.766Z,0.00
2022-12-29T00:43:07.079Z,0.00
2022-12-29T00:44:07.393Z,0.00
2022-12-29T00:45:07.793Z,0.00
2022-12-29T00:46:08.030Z,0.00
2022-12-29T00:47:08.375Z,0.00
2022-12-29T00:48:08.505Z,0.00
2022-12-29T00:49:08.775Z,0.00
2022-12-29T00:50:09.092Z,0.00
2022-12-29T00:51:09.357Z,0.00
2022-12-29T00:52:09.650Z,0.00
2022-12-29T00:53:09.947Z,0.00
2022-12-29T00:54:10.204Z,0.00
2022-12-29T00:55:10.532Z,0.00
2022-12-29T00:56:10.896Z,0.00
2022-12-29T00:57:11.016Z,0.00
2022-12-29T00:58:11.262Z,0.00
2022-12-29T00:59:11.569Z,0.00
2022-12-29T01:00:11.866Z,0.00
2022-12-29T01:01:12.165Z,0.00
2022-12-29T01:02:12.567Z,0.00
2022-12-29T01:03:12.801Z,0.00
2022-12-29T01:04:12.979Z,0.00
2022-12-29T01:05:13.278Z,0.00
2022-12-29T01:06:13.575Z,0.00
2022-12-29T01:07:13.915Z,0.00
2022-12-29T01:08:14.179Z,0.00
2022-12-29T01:09:14.478Z,0.00
2022-12-29T01:10:14.729Z,0.00
2022-12-29T01:11:15.067Z,0.00
2022-12-29T01:12:15.362Z,0.00
2022-12-29T01:13:15.646Z,0.00
2022-12-29T01:14:15.873Z,0.00
2022-12-29T01:15:16.157Z,0.00
2022-12-29T01:16:16.459Z,0.00
2022-12-29T01:17:16.677Z,0.00
2022-12-29T01:18:16.912Z,0.00
2022-12-29T01:19:17.239Z,0.00
2022-12-29T01:20:17.439Z,0.00
2022-12-29T01:21:17.709Z,0.00
2022-12-29T01:22:17.991Z,0.00
2022-12-29T01:23:18.244Z,0.00
2022-12-29T01:24:18.531Z,0.00
2022-12-29T01:25:18.830Z,0.00
2022-12-29T01:26:19.167Z,0.00
2022-12-29T01:27:19.426Z,0.00
2022-12-29T01:28:25.633Z,0.00
2022-12-29T01:29:21.048Z,0.00
2022-12-29T01:30:20.251Z,0.00
2022-12-29T01:31:20.625Z,0.00
2022-12-29T01:32:20.861Z,0.00
2022-12-29T01:33:21.189Z,0.00
2022-12-29T01:34:21.452Z,0.00
2022-12-29T01:35:21.737Z,0.00
2022-12-29T01:36:22.008Z,0.00
2022-12-29T01:37:22.284Z,0.00
2022-12-29T01:38:22.592Z,0.00
2022-12-29T01:39:22.831Z,0.00
2022-12-29T01:40:23.167Z,0.00
2022-12-29T01:41:23.458Z,0.00
2022-12-29T01:42:23.729Z,0.00
2022-12-29T01:43:24.013Z,0.00
2022-12-29T01:44:24.316Z,0.00
2022-12-29T01:45:24.561Z,0.00
2022-12-29T01:46:24.922Z,0.00
2022-12-29T01:47:25.134Z,0.00
2022-12-29T01:48:25.376Z,0.00
2022-12-29T01:49:25.677Z,0.00
2022-12-29T01:50:25.974Z,0.00
2022-12-29T01:51:26.324Z,0.00
2022-12-29T01:52:26.599Z,0.00
2022-12-29T01:53:26.877Z,0.00
2022-12-29T01:54:27.164Z,0.00
2022-12-29T01:55:27.462Z,0.00
2022-12-29T01:56:27.735Z,0.00
2022-12-29T01:57:27.999Z,0.00
2022-12-29T01:58:28.313Z,0.00
2022-12-29T01:59:28.563Z,0.00
2022-12-29T02:00:28.885Z,0.00
2022-12-29T02:01:29.278Z,0.00
2022-12-29T02:02:33.212Z,0.00
2022-12-29T02:03:29.878Z,0.00
2022-12-29T02:04:30.090Z,0.00
2022-12-29T02:05:30.351Z,0.00
2022-12-29T02:06:30.667Z,0.00
2022-12-29T02:07:30.984Z,0.00
2022-12-29T02:08:31.380Z,0.00
2022-12-29T02:09:31.604Z,0.00
2022-12-29T02:10:31.844Z,0.00
2022-12-29T02:11:32.179Z,0.00
2022-12-29T02:12:32.460Z,0.00
2022-12-29T02:13:32.780Z,0.00
2022-12-29T02:14:33.059Z,0.00
2022-12-29T02:15:33.325Z,0.00
2022-12-29T02:16:33.703Z,0.00
2022-12-29T02:17:33.863Z,0.00
2022-12-29T02:18:34.199Z,0.00
2022-12-29T02:19:34.461Z,0.00
2022-12-29T02:20:34.744Z,0.00
2022-12-29T02:21:35.102Z,0.00
2022-12-29T02:22:35.372Z,0.00
2022-12-29T02:23:35.624Z,0.00
2022-12-29T02:24:35.967Z,0.00
2022-12-29T02:25:36.228Z,0.00
2022-12-29T02:26:36.591Z,0.00
2022-12-29T02:27:36.850Z,0.00
2022-12-29T02:28:37.128Z,0.00
2022-12-29T02:29:37.376Z,0.00
2022-12-29T02:30:37.712Z,0.00
2022-12-29T02:31:38.003Z,0.00
2022-12-29T02:32:38.283Z,0.00
2022-12-29T02:33:38.553Z,0.00
2022-12-29T02:34:38.991Z,0.00
2022-12-29T02:35:39.143Z,0.00
2022-12-29T02:36:39.441Z,0.00
2022-12-29T02:37:39.874Z,0.00
2022-12-29T02:38:40.081Z,0.00
2022-12-29T02:39:40.341Z,0.00
2022-12-29T02:40:40.628Z,0.00
2022-12-29T02:41:40.885Z,0.00
2022-12-29T02:42:41.245Z,0.00
2022-12-29T02:43:41.550Z,0.00
2022-12-29T02:44:41.811Z,0.00
2022-12-29T02:45:42.144Z,0.00
2022-12-29T02:46:42.413Z,0.00
2022-12-29T02:47:42.708Z,0.00
2022-12-29T02:48:43.160Z,0.00
2022-12-29T02:49:43.283Z,0.00
2022-12-29T02:50:43.570Z,0.00
2022-12-29T02:51:44.005Z,0.00
2022-12-29T02:52:44.128Z,0.00
2022-12-29T02:53:44.450Z,0.00
2022-12-29T02:54:44.735Z,0.00
2022-12-29T02:55:45.022Z,0.00
2022-12-29T02:56:45.332Z,0.00
2022-12-29T02:57:45.565Z,0.00
2022-12-29T02:58:45.909Z,0.00
2022-12-29T03:02:07.708Z,0.00
2022-12-29T03:03:07.921Z,0.00
2022-12-29T03:04:08.214Z,0.00
2022-12-29T03:05:08.477Z,0.00
2022-12-29T03:06:08.747Z,0.00
2022-12-29T03:07:09.085Z,0.00
2022-12-29T03:08:09.365Z,0.00
2022-12-29T03:09:18.973Z,0.00
2022-12-29T03:10:10.906Z,0.00
2022-12-29T03:11:10.253Z,0.00
2022-12-29T03:12:10.565Z,0.00
2022-12-29T03:13:10.827Z,0.00
2022-12-29T03:14:11.093Z,0.00
2022-12-29T03:15:11.378Z,0.00
2022-12-29T03:16:11.673Z,0.00
2022-12-29T03:17:12.027Z,0.00
2022-12-29T03:18:12.323Z,0.00
2022-12-29T03:19:12.552Z,0.00
2022-12-29T03:20:12.862Z,0.00
2022-12-29T03:21:13.160Z,0.00
2022-12-29T03:22:13.514Z,0.00
2022-12-29T03:23:13.803Z,0.00
2022-12-29T03:24:14.090Z,0.00
2022-12-29T03:25:14.361Z,0.00
2022-12-29T03:26:14.661Z,0.00
2022-12-29T03:27:14.937Z,0.00
2022-12-29T03:28:15.197Z,0.00
2022-12-29T03:29:15.506Z,0.00
2022-12-29T03:30:15.829Z,0.00
2022-12-29T03:31:16.105Z,0.00
2022-12-29T03:32:16.444Z,0.00
2022-12-29T03:33:16.658Z,0.00
2022-12-29T03:34:16.942Z,0.00
2022-12-29T03:35:17.298Z,0.00
2022-12-29T03:36:17.586Z,0.00
2022-12-29T03:37:17.845Z,0.00
2022-12-29T03:38:18.403Z,0.00
2022-12-29T03:39:18.390Z,0.00
2022-12-29T03:40:18.666Z,0.00
2022-12-29T03:41:18.948Z,0.00
2022-12-29T03:42:19.296Z,0.00
2022-12-29T03:43:19.610Z,0.00
2022-12-29T03:44:19.882Z,0.00
2022-12-29T03:45:20.133Z,0.00
2022-12-29T03:46:20.512Z,0.00
2022-12-29T03:47:20.706Z,0.00
2022-12-29T03:48:20.988Z,0.00
2022-12-29T03:49:21.254Z,0.00
2022-12-29T03:50:21.512Z,0.00
2022-12-29T03:51:21.803Z,0.00
2022-12-29T03:52:22.107Z,0.00
2022-12-29T03:53:22.403Z,0.00
2022-12-29T03:54:22.701Z,0.00
2022-12-29T03:55:22.968Z,0.00
2022-12-29T03:56:23.256Z,0.00
2022-12-29T03:57:23.564Z,0.00
2022-12-29T03:58:23.852Z,0.00
2022-12-29T03:59:24.150Z,0.00
2022-12-29T04:00:24.423Z,0.00
2022-12-29T04:01:24.842Z,0.00
2022-12-29T04:02:25.377Z,0.00
2022-12-29T04:03:25.308Z,0.00
2022-12-29T04:04:25.604Z,0.00
2022-12-29T04:05:25.829Z,0.00
2022-12-29T04:06:26.124Z,0.00
2022-12-29T04:07:26.460Z,0.00
2022-12-29T04:08:26.723Z,0.00
2022-12-29T04:09:26.956Z,0.00
2022-12-29T04:10:27.246Z,0.00
2022-12-29T04:11:32.862Z,0.00
2022-12-29T04:12:28.840Z,0.00
2022-12-29T04:13:28.127Z,0.00
2022-12-29T04:14:28.436Z,0.00
2022-12-29T04:15:28.727Z,0.00
2022-12-29T04:16:29.001Z,0.00
2022-12-29T04:17:29.259Z,0.00
2022-12-29T04:18:29.518Z,0.00
2022-12-29T04:19:29.801Z,0.00
2022-12-29T04:20:30.123Z,0.00
2022-12-29T04:21:30.371Z,0.00
2022-12-29T04:22:30.706Z,0.00
2022-12-29T04:23:30.967Z,0.00
2022-12-29T04:24:31.287Z,0.00
2022-12-29T04:25:31.547Z,0.00
2022-12-29T04:26:31.852Z,0.00
2022-12-29T04:27:32.130Z,0.00
2022-12-29T04:28:32.391Z,0.00
2022-12-29T04:29:32.720Z,0.00
2022-12-29T04:30:33.051Z,0.00
2022-12-29T04:31:33.377Z,0.00
2022-12-29T04:32:33.624Z,0.00
2022-12-29T04:33:33.928Z,0.00
2022-12-29T04:34:34.158Z,0.00
2022-12-29T04:35:34.479Z,0.00
2022-12-29T04:36:34.784Z,0.00
2022-12-29T04:37:35.030Z,0.00
2022-12-29T04:38:35.315Z,0.00
2022-12-29T04:39:35.657Z,0.00
2022-12-29T04:40:35.940Z,0.00
2022-12-29T04:41:36.172Z,0.00
2022-12-29T04:42:36.518Z,0.00
2022-12-29T04:43:36.771Z,0.00
2022-12-29T04:44:43.002Z,0.00
2022-12-29T04:45:38.379Z,0.00
2022-12-29T04:46:37.647Z,0.00
2022-12-29T04:47:37.930Z,0.00
2022-12-29T04:48:38.201Z,0.00
2022-12-29T04:49:38.455Z,0.00
2022-12-29T04:50:38.773Z,0.00
2022-12-29T04:51:39.109Z,0.00
2022-12-29T04:52:39.373Z,0.00
2022-12-29T04:53:39.650Z,0.00
2022-12-29T04:54:39.911Z,0.00
2022-12-29T04:55:40.234Z,0.00
2022-12-29T04:56:40.608Z,0.00
2022-12-29T04:57:40.849Z,0.00
2022-12-29T04:58:41.125Z,0.00
2022-12-29T04:59:41.363Z,0.00
2022-12-29T05:00:41.687Z,0.00
2022-12-29T05:01:42.066Z,0.00
2022-12-29T05:02:42.422Z,0.00
2022-12-29T05:03:42.524Z,0.00
2022-12-29T05:04:42.748Z,0.00
2022-12-29T05:05:43.011Z,0.00
2022-12-29T05:06:43.254Z,0.00
2022-12-29T05:07:43.574Z,0.00
2022-12-29T05:08:43.876Z,0.00
2022-12-29T05:09:44.149Z,0.00
2022-12-29T05:10:44.403Z,0.00
2022-12-29T05:11:44.683Z,0.00
2022-12-29T05:12:44.961Z,0.00
2022-12-29T05:13:45.204Z,0.00
2022-12-29T05:14:45.532Z,0.00
2022-12-29T05:15:45.848Z,0.00
2022-12-29T05:16:46.111Z,0.00
2022-12-29T05:17:46.356Z,0.00
2022-12-29T05:18:46.715Z,0.00
2022-12-29T05:19:46.975Z,0.00
2022-12-29T05:20:47.290Z,0.00
2022-12-29T05:21:47.541Z,0.00
2022-12-29T05:22:47.820Z,0.00
2022-12-29T05:23:48.065Z,0.00
2022-12-29T05:24:48.359Z,0.00
2022-12-29T05:25:48.669Z,0.00
2022-12-29T05:26:48.958Z,0.00
2022-12-29T05:27:49.256Z,0.00
2022-12-29T05:28:49.534Z,0.00
2022-12-29T05:29:49.812Z,0.00
2022-12-29T05:30:50.055Z,0.00
2022-12-29T05:31:50.470Z,0.00
2022-12-29T05:32:50.623Z,0.00
2022-12-29T05:33:50.872Z,0.00
2022-12-29T05:34:51.157Z,0.00
2022-12-29T05:35:51.464Z,0.00
2022-12-29T05:36:51.780Z,0.00
2022-12-29T05:37:52.063Z,0.00
2022-12-29T05:38:52.351Z,0.00
2022-12-29T05:39:52.684Z,0.00
2022-12-29T05:40:52.948Z,0.00
2022-12-29T05:41:53.235Z,0.00
2022-12-29T05:42:53.508Z,0.00
2022-12-29T05:43:53.824Z,0.00
2022-12-29T05:44:54.099Z,0.00
2022-12-29T05:45:54.406Z,0.00
2022-12-29T05:46:54.762Z,0.00
2022-12-29T05:47:54.944Z,0.00
2022-12-29T05:48:55.219Z,0.00
2022-12-29T05:49:55.484Z,0.00
2022-12-29T05:50:55.813Z,0.00
2022-12-29T05:51:56.094Z,0.00
2022-12-29T05:52:56.346Z,0.00
2022-12-29T05:53:56.645Z,0.00
2022-12-29T05:54:56.915Z,0.00
2022-12-29T05:55:57.194Z,0.00
2022-12-29T05:56:57.469Z,0.00
2022-12-29T05:57:57.750Z,0.00
2022-12-29T05:58:58.014Z,0.00
2022-12-29T05:59:58.257Z,0.00
2022-12-29T06:00:58.567Z,0.00
2022-12-29T06:01:59.043Z,0.00
2022-12-29T06:02:59.356Z,0.00
2022-12-29T06:03:59.572Z,0.00
2022-12-29T06:04:59.731Z,0.00
2022-12-29T06:06:00.024Z,0.00
2022-12-29T06:07:00.348Z,0.00
2022-12-29T06:08:00.636Z,0.00
2022-12-29T06:09:00.934Z,0.00
2022-12-29T06:10:01.207Z,0.00
2022-12-29T06:11:01.468Z,0.00
2022-12-29T06:12:01.776Z,0.00
2022-12-29T06:13:02.029Z,0.00
2022-12-29T06:14:02.331Z,0.00
2022-12-29T06:15:02.580Z,0.00
2022-12-29T06:16:02.934Z,0.00
2022-12-29T06:17:03.190Z,0.00
2022-12-29T06:18:03.485Z,0.00
2022-12-29T06:19:03.790Z,0.00
2022-12-29T06:20:04.096Z,0.00
2022-12-29T06:21:04.352Z,0.00
2022-12-29T06:22:04.676Z,0.00
2022-12-29T06:23:04.937Z,0.00
2022-12-29T06:24:05.180Z,0.00
2022-12-29T06:25:05.651Z,0.00
2022-12-29T06:26:05.764Z,0.00
2022-12-29T06:27:06.082Z,0.00
2022-12-29T06:28:06.322Z,0.00
2022-12-29T06:29:06.643Z,0.00
2022-12-29T06:30:06.924Z,0.00
2022-12-29T06:31:07.245Z,0.00
2022-12-29T06:32:07.575Z,0.00
2022-12-29T06:33:07.880Z,0.00
2022-12-29T06:34:08.754Z,0.00
2022-12-29T06:35:08.390Z,0.00
2022-12-29T06:36:08.717Z,0.00
2022-12-29T06:37:08.962Z,0.00
2022-12-29T06:38:09.364Z,0.00
2022-12-29T06:39:09.714Z,0.00
2022-12-29T06:40:09.942Z,0.00
2022-12-29T06:41:10.085Z,0.00
2022-12-29T06:42:10.412Z,0.00
2022-12-29T06:43:10.673Z,0.00
2022-12-29T06:44:10.988Z,0.00
2022-12-29T06:45:11.287Z,0.00
2022-12-29T06:46:11.599Z,0.00
2022-12-29T06:47:11.856Z,0.00
2022-12-29T06:48:12.294Z,0.00
2022-12-29T06:49:12.361Z,0.00
2022-12-29T06:50:12.653Z,0.00
2022-12-29T06:51:12.974Z,0.00
2022-12-29T06:52:13.529Z,0.00
2022-12-29T06:53:13.553Z,0.00
2022-12-29T06:54:13.848Z,0.00
2022-12-29T06:55:14.214Z,0.00
2022-12-29T06:56:14.471Z,0.00
2022-12-29T06:57:14.771Z,0.00
2022-12-29T06:58:15.058Z,0.00
2022-12-29T06:59:15.320Z,0.00
2022-12-29T07:00:20.831Z,0.00
2022-12-29T07:01:16.910Z,0.00
2022-12-29T07:02:16.293Z,0.00
2022-12-29T07:03:16.428Z,0.00
2022-12-29T07:04:16.709Z,0.00
2022-12-29T07:05:16.971Z,0.00
2022-12-29T07:06:17.232Z,0.00
2022-12-29T07:07:17.569Z,0.00
2022-12-29T07:08:17.801Z,0.00
2022-12-29T07:09:18.090Z,0.00
2022-12-29T07:10:18.334Z,0.00
2022-12-29T07:11:18.627Z,0.00
2022-12-29T07:12:18.980Z,0.00
2022-12-29T07:13:19.249Z,0.00
2022-12-29T07:14:19.523Z,0.00
2022-12-29T07:15:19.791Z,4.00
2022-12-29T07:16:20.140Z,4.00
2022-12-29T07:17:20.421Z,0.00
2022-12-29T07:18:20.676Z,4.00
2022-12-29T07:19:21.003Z,4.00
2022-12-29T07:20:26.531Z,4.00
2022-12-29T07:21:22.530Z,4.00
2022-12-29T07:22:21.835Z,8.00
2022-12-29T07:23:22.365Z,8.00
2022-12-29T07:24:22.424Z,12.00
2022-12-29T07:25:22.712Z,12.00
2022-12-29T07:26:23.026Z,8.00
2022-12-29T07:27:23.350Z,12.00
2022-12-29T07:28:23.645Z,12.00
2022-12-29T07:29:23.903Z,12.00
2022-12-29T07:30:24.250Z,16.00
2022-12-29T07:31:24.552Z,16.00
2022-12-29T07:32:24.834Z,16.00
2022-12-29T07:33:25.122Z,20.00
2022-12-29T07:34:25.427Z,24.00
2022-12-29T07:35:25.735Z,32.00
2022-12-29T07:36:30.787Z,32.00
2022-12-29T07:37:27.304Z,36.00
2022-12-29T07:38:26.633Z,44.00
2022-12-29T07:39:26.934Z,48.00
2022-12-29T07:40:27.311Z,52.00
2022-12-29T07:41:27.615Z,52.00
2022-12-29T07:42:27.955Z,60.00
2022-12-29T07:43:28.221Z,68.00
2022-12-29T07:44:28.516Z,72.00
2022-12-29T07:45:28.842Z,84.00
2022-12-29T07:46:55.133Z,96.00
2022-12-29T07:47:30.422Z,100.00
2022-12-29T07:48:29.634Z,104.00
2022-12-29T07:49:29.975Z,112.00
2022-12-29T07:50:30.301Z,120.00
2022-12-29T07:51:30.651Z,120.00
2022-12-29T07:52:30.951Z,128.00
2022-12-29T07:53:31.270Z,132.00
2022-12-29T07:54:31.592Z,156.00
2022-12-29T07:55:31.909Z,180.00
2022-12-29T07:56:32.195Z,184.00
2022-12-29T07:57:32.572Z,188.00
2022-12-29T07:58:32.881Z,196.00
2022-12-29T07:59:33.185Z,192.00
2022-12-29T08:00:33.537Z,204.00
2022-12-29T08:01:33.983Z,224.00
2022-12-29T08:02:34.289Z,240.00
2022-12-29T08:03:34.490Z,264.00
2022-12-29T08:04:34.783Z,264.00
2022-12-29T08:05:35.056Z,264.00
2022-12-29T08:06:35.386Z,268.00
2022-12-29T08:07:35.901Z,272.00
2022-12-29T08:08:36.054Z,264.00
2022-12-29T08:09:36.393Z,252.00
2022-12-29T08:10:36.711Z,216.00
2022-12-29T08:11:37.025Z,204.00
2022-12-29T08:12:37.420Z,216.00
2022-12-29T08:13:37.584Z,196.00
2022-12-29T08:14:37.988Z,176.00
2022-12-29T08:15:38.285Z,188.00
2022-12-29T08:16:38.589Z,200.00
2022-12-29T08:17:38.879Z,184.00
2022-12-29T08:18:39.181Z,204.00
2022-12-29T08:19:39.551Z,280.00
2022-12-29T08:20:39.830Z,328.00
2022-12-29T08:21:40.173Z,404.00
2022-12-29T08:22:40.499Z,424.00
2022-12-29T08:23:40.843Z,440.00
2022-12-29T08:24:41.012Z,480.00
2022-12-29T08:25:41.332Z,552.00
2022-12-29T08:26:41.694Z,564.00
2022-12-29T08:27:41.997Z,556.00
2022-12-29T08:28:42.285Z,568.00
2022-12-29T08:29:42.597Z,608.00
2022-12-29T08:30:42.993Z,628.00
2022-12-29T08:31:43.280Z,644.00
2022-12-29T08:32:43.556Z,620.00
2022-12-29T08:33:43.834Z,632.00
2022-12-29T08:34:44.267Z,632.00
2022-12-29T08:35:44.438Z,664.00
2022-12-29T08:36:44.728Z,700.00
2022-12-29T08:37:45.082Z,740.00
2022-12-29T08:38:45.379Z,764.00
2022-12-29T08:39:45.746Z,792.00
2022-12-29T08:40:46.324Z,820.00
2022-12-29T08:41:46.356Z,864.00
2022-12-29T08:42:46.667Z,852.00
2022-12-29T08:43:46.960Z,840.00
2022-12-29T08:44:47.363Z,844.00
2022-12-29T08:45:47.654Z,856.00
2022-12-29T08:46:47.948Z,888.00
2022-12-29T08:47:48.301Z,904.00
2022-12-29T08:48:48.606Z,880.00
2022-12-29T08:49:48.889Z,880.00
2022-12-29T08:50:49.221Z,872.00
2022-12-29T08:51:49.566Z,820.00
2022-12-29T08:52:49.896Z,796.00
2022-12-29T08:53:50.217Z,804.00
2022-12-29T08:54:50.535Z,784.00
2022-12-29T08:55:50.848Z,772.00
2022-12-29T08:56:51.150Z,780.00
2022-12-29T08:57:51.488Z,848.00
2022-12-29T08:58:51.801Z,904.00
2022-12-29T08:59:59.120Z,932.00
2022-12-29T09:00:52.384Z,936.00
2022-12-29T09:01:52.887Z,896.00
2022-12-29T09:02:53.235Z,824.00
2022-12-29T09:04:54.620Z,732.00
2022-12-29T09:05:53.854Z,652.00
2022-12-29T09:06:54.120Z,592.00
2022-12-29T09:07:54.465Z,616.00
2022-12-29T09:08:54.767Z,616.00
2022-12-29T09:09:55.123Z,632.00
2022-12-29T09:10:55.408Z,600.00
2022-12-29T09:11:55.739Z,664.00
2022-12-29T09:12:56.082Z,704.00
2022-12-29T09:13:56.406Z,688.00
2022-12-29T09:14:56.715Z,700.00
2022-12-29T09:15:57.142Z,712.00
2022-12-29T09:16:57.328Z,780.00
2022-12-29T09:17:57.626Z,844.00
2022-12-29T09:18:57.913Z,892.00
2022-12-29T09:19:58.275Z,880.00
2022-12-29T09:20:58.583Z,904.00
2022-12-29T09:21:58.876Z,988.00
2022-12-29T09:22:59.204Z,956.00
2022-12-29T09:23:59.488Z,964.00
2022-12-29T09:24:59.808Z,1052.00
2022-12-29T09:26:00.138Z,1168.00
2022-12-29T09:27:00.366Z,1332.00
2022-12-29T09:28:00.682Z,1544.00
2022-12-29T09:29:00.889Z,1628.00
2022-12-29T09:30:01.236Z,1524.00
2022-12-29T09:31:01.617Z,1728.00
2022-12-29T09:32:01.902Z,1756.00
2022-12-29T09:33:02.288Z,1624.00
2022-12-29T09:34:02.633Z,1800.00
2022-12-29T09:35:02.923Z,1800.00
2022-12-29T09:36:03.200Z,1816.00
2022-12-29T09:37:03.481Z,1696.00
2022-12-29T09:38:03.738Z,1792.00
2022-12-29T09:39:04.043Z,1676.00
2022-12-29T09:40:04.306Z,1632.00
2022-12-29T09:41:04.618Z,1680.00
2022-12-29T09:42:04.968Z,1856.00
2022-12-29T09:43:05.274Z,1968.00
2022-12-29T09:44:05.508Z,1940.00
2022-12-29T09:45:05.742Z,1864.00
2022-12-29T09:46:06.040Z,1748.00
2022-12-29T09:47:06.459Z,1860.00
2022-12-29T09:48:09.718Z,1620.00
2022-12-29T09:49:06.968Z,1892.00
2022-12-29T09:50:07.322Z,2080.00
2022-12-29T09:51:07.638Z,1988.00
2022-12-29T09:52:07.984Z,1684.00
2022-12-29T09:53:08.332Z,1968.00
2022-12-29T09:54:08.650Z,2108.00
2022-12-29T09:55:13.899Z,2128.00
2022-12-29T09:56:10.319Z,2308.00
2022-12-29T09:57:09.560Z,1976.00
2022-12-29T09:58:09.867Z,1852.00
2022-12-29T09:59:10.108Z,1860.00
2022-12-29T10:00:10.457Z,1928.00
2022-12-29T10:01:10.808Z,1852.00
2022-12-29T10:04:29.948Z,1768.00
2022-12-29T10:05:30.267Z,1776.00
2022-12-29T10:06:30.576Z,1944.00
2022-12-29T10:07:31.210Z,2088.00
2022-12-29T10:08:31.243Z,2096.00
2022-12-29T10:09:31.580Z,2160.00
2022-12-29T10:10:31.894Z,2180.00
2022-12-29T10:11:32.248Z,2220.00
2022-12-29T10:12:32.578Z,2172.00
2022-12-29T10:13:32.873Z,2216.00
2022-12-29T10:14:33.214Z,2220.00
2022-12-29T10:15:33.604Z,2396.00
2022-12-29T10:16:34.017Z,2540.00
2022-12-29T10:17:34.257Z,2456.00
2022-12-29T10:18:34.425Z,2308.00
2022-12-29T10:19:34.773Z,2312.00
2022-12-29T10:20:35.167Z,2352.00
2022-12-29T10:21:35.361Z,2544.00
2022-12-29T10:22:35.696Z,2692.00
2022-12-29T10:23:36.077Z,2704.00
2022-12-29T10:24:36.369Z,3016.00
2022-12-29T10:25:36.719Z,2888.00
2022-12-29T10:26:36.960Z,2880.00
2022-12-29T10:27:37.263Z,2772.00
2022-12-29T10:28:37.500Z,2732.00
2022-12-29T10:29:37.852Z,2616.00
2022-12-29T10:30:38.158Z,2536.00
2022-12-29T10:31:38.507Z,2636.00
2022-12-29T10:32:38.831Z,2660.00
2022-12-29T10:33:39.170Z,2772.00
2022-12-29T10:34:39.523Z,2636.00
2022-12-29T10:35:39.894Z,2528.00
2022-12-29T10:36:40.092Z,2504.00
2022-12-29T10:37:40.392Z,2448.00
2022-12-29T10:38:40.766Z,2468.00
2022-12-29T10:39:41.117Z,2400.00
2022-12-29T10:40:41.440Z,2404.00
2022-12-29T10:41:41.819Z,2228.00
2022-12-29T10:45:02.917Z,2640.00
2022-12-29T10:46:04.937Z,2512.00
2022-12-29T10:47:03.637Z,2792.00
2022-12-29T10:48:03.824Z,2708.00
2022-12-29T10:49:04.117Z,2880.00
2022-12-29T10:50:04.483Z,3044.00
2022-12-29T10:51:04.724Z,2848.00
2022-12-29T10:52:05.058Z,2656.00
2022-12-29T10:53:05.403Z,2508.00
2022-12-29T10:54:05.717Z,2148.00
2022-12-29T10:55:06.043Z,2284.00
2022-12-29T10:56:06.448Z,2260.00
2022-12-29T10:57:06.695Z,2464.00
2022-12-29T10:58:13.856Z,2352.00
2022-12-29T10:59:07.115Z,2240.00
2022-12-29T11:00:07.474Z,2144.00
2022-12-29T11:01:07.809Z,2016.00
2022-12-29T11:02:08.113Z,2044.00
2022-12-29T11:03:08.381Z,2384.00
2022-12-29T11:04:08.557Z,2000.00
2022-12-29T11:05:08.882Z,2252.00
2022-12-29T11:06:09.197Z,2208.00
2022-12-29T11:07:15.614Z,2144.00
2022-12-29T11:08:10.844Z,2120.00
2022-12-29T11:09:10.076Z,2100.00
2022-12-29T11:10:10.446Z,1916.00
2022-12-29T11:11:10.747Z,2360.00
2022-12-29T11:12:11.045Z,2332.00
2022-12-29T11:13:11.457Z,2340.00
2022-12-29T11:14:11.742Z,2280.00
2022-12-29T11:15:12.068Z,2044.00
2022-12-29T11:16:12.544Z,2004.00
2022-12-29T11:17:12.731Z,1952.00
2022-12-29T11:18:13.003Z,2112.00
2022-12-29T11:19:13.165Z,2072.00
2022-12-29T11:20:13.565Z,2120.00
2022-12-29T11:21:13.902Z,2168.00
2022-12-29T11:22:14.126Z,2248.00
2022-12-29T11:23:14.409Z,2236.00
2022-12-29T11:24:14.779Z,2248.00
2022-12-29T11:25:15.135Z,2300.00
2022-12-29T11:26:15.451Z,2416.00
2022-12-29T11:27:15.776Z,2212.00
2022-12-29T11:28:16.067Z,2060.00
2022-12-29T11:29:16.411Z,2352.00
2022-12-29T11:30:16.778Z,2304.00
2022-12-29T11:31:17.133Z,2476.00
2022-12-29T11:32:20.270Z,2560.00
2022-12-29T11:33:18.614Z,2816.00
2022-12-29T11:34:17.857Z,2772.00
2022-12-29T11:35:18.168Z,2632.00
2022-12-29T11:36:18.414Z,2512.00
2022-12-29T11:37:18.745Z,2476.00
2022-12-29T11:38:19.058Z,2456.00
2022-12-29T11:39:19.392Z,2380.00
2022-12-29T11:40:19.722Z,2516.00
2022-12-29T11:41:20.019Z,2496.00
2022-12-29T11:42:20.329Z,2880.00
2022-12-29T11:43:20.594Z,3016.00
2022-12-29T11:44:20.920Z,2912.00
2022-12-29T11:45:21.274Z,3276.00
2022-12-29T11:46:21.632Z,3448.00
2022-12-29T11:47:21.824Z,3452.00
2022-12-29T11:48:22.168Z,3228.00
2022-12-29T11:49:22.458Z,3284.00
2022-12-29T11:50:22.720Z,2912.00
2022-12-29T11:51:25.259Z,3040.00
2022-12-29T11:52:23.366Z,2968.00
2022-12-29T11:53:23.659Z,2708.00
2022-12-29T11:54:24.017Z,2568.00
2022-12-29T11:55:24.280Z,2328.00
2022-12-29T11:56:24.579Z,2148.00
2022-12-29T11:57:24.911Z,1908.00
2022-12-29T11:58:25.208Z,1732.00
2022-12-29T11:59:25.567Z,1688.00
2022-12-29T12:00:25.922Z,1692.00
2022-12-29T12:02:53.529Z,1596.00
2022-12-29T12:03:04.595Z,1804.00
2022-12-29T12:04:01.473Z,2068.00
2022-12-29T12:05:00.678Z,2188.00
2022-12-29T12:05:59.287Z,1744.00
2022-12-29T12:06:59.546Z,1800.00
2022-12-29T12:07:59.866Z,1728.00
2022-12-29T12:09:00.106Z,1876.00
2022-12-29T12:10:07.101Z,1896.00
2022-12-29T12:11:01.717Z,1680.00
2022-12-29T12:12:00.995Z,1700.00
2022-12-29T12:13:01.308Z,1884.00
2022-12-29T12:14:01.640Z,1928.00
2022-12-29T12:15:01.976Z,1900.00
2022-12-29T12:16:02.223Z,1656.00
2022-12-29T12:17:02.459Z,1608.00
2022-12-29T12:18:02.698Z,1392.00
2022-12-29T12:19:02.916Z,1540.00
2022-12-29T12:20:03.221Z,1276.00
2022-12-29T12:21:03.558Z,1148.00
2022-12-29T12:22:03.951Z,1036.00
2022-12-29T12:23:04.277Z,916.00
2022-12-29T12:24:04.559Z,988.00
2022-12-29T12:25:04.852Z,1124.00
2022-12-29T12:26:05.210Z,1044.00
2022-12-29T12:27:05.539Z,932.00
2022-12-29T12:28:05.872Z,884.00
2022-12-29T12:29:06.183Z,880.00
2022-12-29T12:30:06.487Z,1000.00
2022-12-29T12:31:06.923Z,968.00
2022-12-29T12:32:07.163Z,864.00
2022-12-29T12:33:07.465Z,836.00
2022-12-29T12:34:07.745Z,1212.00
2022-12-29T12:35:08.017Z,1120.00
2022-12-29T12:36:08.249Z,1144.00
2022-12-29T12:37:08.551Z,1292.00
2022-12-29T12:38:08.795Z,1120.00
2022-12-29T12:39:09.114Z,1016.00
2022-12-29T12:40:09.419Z,1092.00
2022-12-29T12:41:09.788Z,1284.00
2022-12-29T12:42:09.994Z,1072.00
2022-12-29T12:43:10.372Z,932.00
2022-12-29T12:44:10.561Z,1092.00
2022-12-29T12:45:10.780Z,1304.00
2022-12-29T12:46:11.211Z,1272.00
2022-12-29T12:47:11.437Z,1320.00
2022-12-29T12:48:11.647Z,1444.00
2022-12-29T12:49:11.978Z,1492.00
2022-12-29T12:50:12.294Z,1620.00
2022-12-29T12:51:12.467Z,1604.00
2022-12-29T12:52:12.860Z,1624.00
2022-12-29T12:53:13.087Z,1576.00
2022-12-29T12:54:13.296Z,1604.00
2022-12-29T12:55:13.519Z,1596.00
2022-12-29T12:56:13.839Z,1504.00
2022-12-29T12:57:14.153Z,1452.00
2022-12-29T12:58:14.470Z,1508.00
2022-12-29T12:59:14.802Z,1432.00
2022-12-29T13:00:15.119Z,1452.00
2022-12-29T13:01:15.504Z,1236.00
2022-12-29T13:02:15.959Z,1068.00
2022-12-29T13:03:16.202Z,1256.00